Attica, NY (14011)

1:34 AM EDT on July 29, 2016 (GMT -0400)
South of village | | Change Station

Elev 1007 ft 42.84 °N, 78.29 °W | Updated 40 seconds ago

Mostly Cloudy
Mostly Cloudy
64.4 °F
Feels Like 64.4 °F
N
2.5
Wind Variable Wind from SW
Gusts 3.5 mph

Today
High -- | Low -- °F
--% Chance of Precip.
Yesterday
High -- | Low -- °F
Precip. -- in
Pressure 29.89 in
Visibility 10.0 miles
Clouds Few 4500 ft
Scattered Clouds 9500 ft
Scattered Clouds 16000 ft
Mostly Cloudy 25000 ft
Dew Point 63 °F
Humidity 95%
Rainfall 0.00 in
Snow Depth Not available.
6:01 AM 8:36 PM
Waning Crescent, 25% visible
METAR KBUF 290454Z 00000KT 10SM FEW045 SCT095 SCT160 BKN250 23/17 A2990 RMK AO2 SLP120 T02280167 402940200
Pressure 29.89 in
Visibility 10.0 miles
Clouds Few 4500 ft
Scattered Clouds 9500 ft
Scattered Clouds 16000 ft
Mostly Cloudy 25000 ft
Dew Point 63 °F
Humidity 95%
Rainfall 0.00 in
Snow Depth Not available.
6:01 AM 8:36 PM
Waning Crescent, 25% visible
METAR KBUF 290454Z 00000KT 10SM FEW045 SCT095 SCT160 BKN250 23/17 A2990 RMK AO2 SLP120 T02280167 402940200

10-Day Weather Forecast

Almanac

Astronomy

Jul. 29, 2016 Rise Set
Actual Time
Civil Twilight
Nautical Twilight
Astronomical Twilight
Moon
Length of Visible Light
Length of Day
Tomorrow will be .
, % of the Moon is Illuminated

Today's Extremes

State Highs State Lows

Community

WunderPhotos

Upload Photos

1,928,299 photos uploaded!

WunderBlog® & News

Nearby

Air Quality

  Air Quality AQ Index Pollutant
Not available.

Snow Depth

Station Depth Elevation

Earthquake Activity

City Distance Mag. Time & Date
Minimum magnitude displayed is 2.5.

Coastal Water Temperatures

Place Temperature

Stations

Nearby Weather Stations

Station Location Temp. Windchill Dew Point Humidity Wind Precip. Elev Updated Type
                   

Watches & Warnings

There are currently no watches in effect.